sensor_id;sensor_type;location;lat;lon;timestamp;P1;durP1;ratioP1;P2;durP2;ratioP2
49842;SDS011;55559;48.898;9.184;2023-05-06T00:00:29;5.95;;;1.40;;
49842;SDS011;55559;48.898;9.184;2023-05-06T00:02:58;3.42;;;0.95;;
49842;SDS011;55559;48.898;9.184;2023-05-06T00:05:26;2.15;;;0.95;;
49842;SDS011;55559;48.898;9.184;2023-05-06T00:07:53;2.53;;;1.00;;
49842;SDS011;55559;48.898;9.184;2023-05-06T00:10:20;3.25;;;0.77;;
49842;SDS011;55559;48.898;9.184;2023-05-06T00:12:48;7.95;;;0.75;;
49842;SDS011;55559;48.898;9.184;2023-05-06T00:15:15;3.13;;;0.80;;
49842;SDS011;55559;48.898;9.184;2023-05-06T00:17:44;7.30;;;0.70;;
49842;SDS011;55559;48.898;9.184;2023-05-06T00:20:13;8.43;;;0.70;;
49842;SDS011;55559;48.898;9.184;2023-05-06T00:22:52;4.20;;;0.80;;
49842;SDS011;55559;48.898;9.184;2023-05-06T00:25:19;2.83;;;0.80;;
49842;SDS011;55559;48.898;9.184;2023-05-06T00:27:47;7.22;;;0.60;;
49842;SDS011;55559;48.898;9.184;2023-05-06T00:30:14;4.25;;;0.60;;
49842;SDS011;55559;48.898;9.184;2023-05-06T00:32:43;2.30;;;0.50;;
49842;SDS011;55559;48.898;9.184;2023-05-06T00:35:19;2.28;;;1.13;;
49842;SDS011;55559;48.898;9.184;2023-05-06T00:37:49;3.80;;;0.80;;
49842;SDS011;55559;48.898;9.184;2023-05-06T00:40:23;2.63;;;0.90;;
49842;SDS011;55559;48.898;9.184;2023-05-06T00:42:50;4.78;;;0.90;;
49842;SDS011;55559;48.898;9.184;2023-05-06T00:45:18;2.35;;;0.60;;
49842;SDS011;55559;48.898;9.184;2023-05-06T00:47:45;5.07;;;0.90;;
49842;SDS011;55559;48.898;9.184;2023-05-06T00:50:13;5.47;;;1.08;;
49842;SDS011;55559;48.898;9.184;2023-05-06T00:52:41;4.40;;;1.10;;
49842;SDS011;55559;48.898;9.184;2023-05-06T00:55:10;8.15;;;1.10;;
49842;SDS011;55559;48.898;9.184;2023-05-06T00:57:37;8.02;;;1.10;;
49842;SDS011;55559;48.898;9.184;2023-05-06T01:00:08;2.83;;;0.90;;
49842;SDS011;55559;48.898;9.184;2023-05-06T01:02:37;2.47;;;1.05;;
49842;SDS011;55559;48.898;9.184;2023-05-06T01:05:05;5.88;;;1.13;;
49842;SDS011;55559;48.898;9.184;2023-05-06T01:07:34;8.13;;;1.48;;
49842;SDS011;55559;48.898;9.184;2023-05-06T01:10:12;5.20;;;1.08;;
49842;SDS011;55559;48.898;9.184;2023-05-06T01:12:47;3.92;;;1.20;;
49842;SDS011;55559;48.898;9.184;2023-05-06T01:15:30;2.38;;;1.05;;
49842;SDS011;55559;48.898;9.184;2023-05-06T01:18:00;2.90;;;1.40;;
49842;SDS011;55559;48.898;9.184;2023-05-06T01:20:34;4.22;;;1.35;;
49842;SDS011;55559;48.898;9.184;2023-05-06T01:23:07;6.40;;;1.52;;
49842;SDS011;55559;48.898;9.184;2023-05-06T01:25:37;3.45;;;1.25;;
49842;SDS011;55559;48.898;9.184;2023-05-06T01:28:05;3.70;;;1.00;;
49842;SDS011;55559;48.898;9.184;2023-05-06T01:30:37;3.47;;;1.05;;
49842;SDS011;55559;48.898;9.184;2023-05-06T01:33:10;3.22;;;1.52;;
49842;SDS011;55559;48.898;9.184;2023-05-06T01:35:52;6.25;;;1.30;;
49842;SDS011;55559;48.898;9.184;2023-05-06T01:38:28;8.48;;;1.50;;
49842;SDS011;55559;48.898;9.184;2023-05-06T01:41:00;5.97;;;1.65;;
49842;SDS011;55559;48.898;9.184;2023-05-06T01:43:31;3.10;;;1.20;;
49842;SDS011;55559;48.898;9.184;2023-05-06T01:46:04;3.38;;;1.65;;
49842;SDS011;55559;48.898;9.184;2023-05-06T01:48:32;13.55;;;3.17;;
49842;SDS011;55559;48.898;9.184;2023-05-06T01:51:03;6.20;;;2.03;;
49842;SDS011;55559;48.898;9.184;2023-05-06T01:53:32;5.78;;;1.80;;
49842;SDS011;55559;48.898;9.184;2023-05-06T01:56:01;4.32;;;2.50;;
49842;SDS011;55559;48.898;9.184;2023-05-06T01:58:28;5.10;;;1.77;;
49842;SDS011;55559;48.898;9.184;2023-05-06T02:00:57;8.77;;;1.90;;
49842;SDS011;55559;48.898;9.184;2023-05-06T02:03:24;5.40;;;2.05;;
49842;SDS011;55559;48.898;9.184;2023-05-06T02:05:52;3.80;;;1.90;;
49842;SDS011;55559;48.898;9.184;2023-05-06T02:08:20;5.45;;;2.40;;
49842;SDS011;55559;48.898;9.184;2023-05-06T02:10:49;8.13;;;2.53;;
49842;SDS011;55559;48.898;9.184;2023-05-06T02:13:17;6.75;;;2.00;;
49842;SDS011;55559;48.898;9.184;2023-05-06T02:15:45;4.22;;;3.15;;
49842;SDS011;55559;48.898;9.184;2023-05-06T02:18:16;9.32;;;3.60;;
49842;SDS011;55559;48.898;9.184;2023-05-06T02:20:44;7.95;;;3.20;;
49842;SDS011;55559;48.898;9.184;2023-05-06T02:23:14;10.65;;;3.60;;
49842;SDS011;55559;48.898;9.184;2023-05-06T02:25:44;14.10;;;4.60;;
49842;SDS011;55559;48.898;9.184;2023-05-06T02:28:14;12.07;;;4.32;;
49842;SDS011;55559;48.898;9.184;2023-05-06T02:30:42;5.78;;;3.60;;
49842;SDS011;55559;48.898;9.184;2023-05-06T02:33:10;10.02;;;3.70;;
49842;SDS011;55559;48.898;9.184;2023-05-06T02:35:39;7.63;;;3.28;;
49842;SDS011;55559;48.898;9.184;2023-05-06T02:38:07;7.10;;;3.83;;
49842;SDS011;55559;48.898;9.184;2023-05-06T02:40:35;7.45;;;4.05;;
49842;SDS011;55559;48.898;9.184;2023-05-06T02:43:03;10.90;;;4.20;;
49842;SDS011;55559;48.898;9.184;2023-05-06T02:45:34;5.47;;;4.07;;
49842;SDS011;55559;48.898;9.184;2023-05-06T02:48:01;12.82;;;5.00;;
49842;SDS011;55559;48.898;9.184;2023-05-06T02:50:29;13.20;;;4.97;;
49842;SDS011;55559;48.898;9.184;2023-05-06T02:52:56;5.10;;;4.55;;
49842;SDS011;55559;48.898;9.184;2023-05-06T02:55:24;8.13;;;4.75;;
49842;SDS011;55559;48.898;9.184;2023-05-06T02:57:51;5.65;;;4.88;;
49842;SDS011;55559;48.898;9.184;2023-05-06T03:00:19;8.45;;;5.63;;
49842;SDS011;55559;48.898;9.184;2023-05-06T03:02:48;13.25;;;5.13;;
49842;SDS011;55559;48.898;9.184;2023-05-06T03:05:15;10.60;;;5.30;;
49842;SDS011;55559;48.898;9.184;2023-05-06T03:07:43;5.82;;;4.35;;
49842;SDS011;55559;48.898;9.184;2023-05-06T03:10:10;10.00;;;5.40;;
49842;SDS011;55559;48.898;9.184;2023-05-06T03:12:39;7.05;;;4.55;;
49842;SDS011;55559;48.898;9.184;2023-05-06T03:15:07;7.68;;;5.15;;
49842;SDS011;55559;48.898;9.184;2023-05-06T03:17:37;16.60;;;5.10;;
49842;SDS011;55559;48.898;9.184;2023-05-06T03:20:07;6.97;;;4.75;;
49842;SDS011;55559;48.898;9.184;2023-05-06T03:22:38;9.82;;;4.57;;
49842;SDS011;55559;48.898;9.184;2023-05-06T03:25:08;7.32;;;4.65;;
49842;SDS011;55559;48.898;9.184;2023-05-06T03:27:37;10.23;;;5.00;;
49842;SDS011;55559;48.898;9.184;2023-05-06T03:30:15;13.52;;;5.45;;
49842;SDS011;55559;48.898;9.184;2023-05-06T03:32:50;7.63;;;4.20;;
49842;SDS011;55559;48.898;9.184;2023-05-06T03:35:26;5.85;;;3.97;;
49842;SDS011;55559;48.898;9.184;2023-05-06T03:38:22;8.68;;;5.13;;
49842;SDS011;55559;48.898;9.184;2023-05-06T03:40:56;11.27;;;4.78;;
49842;SDS011;55559;48.898;9.184;2023-05-06T03:43:25;8.75;;;4.65;;
49842;SDS011;55559;48.898;9.184;2023-05-06T03:45:57;10.68;;;5.35;;
49842;SDS011;55559;48.898;9.184;2023-05-06T03:48:26;11.15;;;5.35;;
49842;SDS011;55559;48.898;9.184;2023-05-06T03:50:55;9.23;;;7.22;;
49842;SDS011;55559;48.898;9.184;2023-05-06T03:53:25;8.27;;;6.15;;
49842;SDS011;55559;48.898;9.184;2023-05-06T03:55:53;9.90;;;7.40;;
49842;SDS011;55559;48.898;9.184;2023-05-06T03:58:21;10.68;;;6.93;;
49842;SDS011;55559;48.898;9.184;2023-05-06T04:00:50;12.65;;;7.70;;
49842;SDS011;55559;48.898;9.184;2023-05-06T04:03:18;9.82;;;8.07;;
49842;SDS011;55559;48.898;9.184;2023-05-06T04:05:49;11.60;;;8.18;;
49842;SDS011;55559;48.898;9.184;2023-05-06T04:08:23;12.63;;;8.43;;
49842;SDS011;55559;48.898;9.184;2023-05-06T04:11:02;13.27;;;8.05;;
49842;SDS011;55559;48.898;9.184;2023-05-06T04:13:31;11.73;;;8.25;;
49842;SDS011;55559;48.898;9.184;2023-05-06T04:16:01;13.18;;;8.90;;
49842;SDS011;55559;48.898;9.184;2023-05-06T04:18:37;14.63;;;9.18;;
49842;SDS011;55559;48.898;9.184;2023-05-06T04:21:10;9.68;;;8.82;;
49842;SDS011;55559;48.898;9.184;2023-05-06T04:23:40;16.25;;;10.35;;
49842;SDS011;55559;48.898;9.184;2023-05-06T04:26:13;14.18;;;9.55;;
49842;SDS011;55559;48.898;9.184;2023-05-06T04:28:44;11.52;;;9.27;;
49842;SDS011;55559;48.898;9.184;2023-05-06T04:31:13;13.27;;;11.00;;
49842;SDS011;55559;48.898;9.184;2023-05-06T04:33:47;15.25;;;10.77;;
49842;SDS011;55559;48.898;9.184;2023-05-06T04:36:26;16.48;;;11.60;;
49842;SDS011;55559;48.898;9.184;2023-05-06T04:39:23;17.15;;;10.98;;
49842;SDS011;55559;48.898;9.184;2023-05-06T04:41:58;16.85;;;10.02;;
49842;SDS011;55559;48.898;9.184;2023-05-06T04:44:33;13.80;;;11.10;;
49842;SDS011;55559;48.898;9.184;2023-05-06T04:47:04;17.95;;;11.63;;
49842;SDS011;55559;48.898;9.184;2023-05-06T04:49:31;13.27;;;11.15;;
49842;SDS011;55559;48.898;9.184;2023-05-06T04:52:01;17.00;;;11.35;;
49842;SDS011;55559;48.898;9.184;2023-05-06T04:54:31;16.92;;;10.93;;
49842;SDS011;55559;48.898;9.184;2023-05-06T04:56:58;16.92;;;10.38;;
49842;SDS011;55559;48.898;9.184;2023-05-06T04:59:28;14.85;;;10.15;;
49842;SDS011;55559;48.898;9.184;2023-05-06T05:01:55;15.35;;;11.68;;
49842;SDS011;55559;48.898;9.184;2023-05-06T05:04:23;14.10;;;12.38;;
49842;SDS011;55559;48.898;9.184;2023-05-06T05:06:53;21.80;;;12.55;;
49842;SDS011;55559;48.898;9.184;2023-05-06T05:09:20;12.88;;;10.40;;
49842;SDS011;55559;48.898;9.184;2023-05-06T05:11:50;15.82;;;10.25;;
49842;SDS011;55559;48.898;9.184;2023-05-06T05:14:18;13.10;;;8.25;;
49842;SDS011;55559;48.898;9.184;2023-05-06T05:16:46;12.50;;;8.25;;
49842;SDS011;55559;48.898;9.184;2023-05-06T05:19:16;11.48;;;7.28;;
49842;SDS011;55559;48.898;9.184;2023-05-06T05:21:43;10.15;;;7.65;;
49842;SDS011;55559;48.898;9.184;2023-05-06T05:24:12;12.65;;;7.18;;
49842;SDS011;55559;48.898;9.184;2023-05-06T05:26:40;12.27;;;6.05;;
49842;SDS011;55559;48.898;9.184;2023-05-06T05:29:11;9.02;;;6.90;;
49842;SDS011;55559;48.898;9.184;2023-05-06T05:31:38;9.75;;;6.95;;
49842;SDS011;55559;48.898;9.184;2023-05-06T05:34:07;6.50;;;5.95;;
49842;SDS011;55559;48.898;9.184;2023-05-06T05:36:42;13.48;;;6.50;;
49842;SDS011;55559;48.898;9.184;2023-05-06T05:39:13;14.18;;;5.47;;
49842;SDS011;55559;48.898;9.184;2023-05-06T05:41:44;9.98;;;4.93;;
49842;SDS011;55559;48.898;9.184;2023-05-06T05:44:14;8.80;;;4.55;;
49842;SDS011;55559;48.898;9.184;2023-05-06T05:46:43;6.45;;;4.22;;
49842;SDS011;55559;48.898;9.184;2023-05-06T05:49:14;5.55;;;3.70;;
49842;SDS011;55559;48.898;9.184;2023-05-06T05:51:42;8.13;;;4.30;;
49842;SDS011;55559;48.898;9.184;2023-05-06T05:54:13;7.95;;;3.63;;
49842;SDS011;55559;48.898;9.184;2023-05-06T05:56:41;8.50;;;3.55;;
49842;SDS011;55559;48.898;9.184;2023-05-06T05:59:09;6.20;;;3.63;;
49842;SDS011;55559;48.898;9.184;2023-05-06T06:01:39;7.03;;;3.47;;
49842;SDS011;55559;48.898;9.184;2023-05-06T06:04:08;6.97;;;3.40;;
49842;SDS011;55559;48.898;9.184;2023-05-06T06:06:35;5.07;;;3.05;;
49842;SDS011;55559;48.898;9.184;2023-05-06T06:09:03;6.00;;;3.08;;
49842;SDS011;55559;48.898;9.184;2023-05-06T06:11:30;4.03;;;1.85;;
49842;SDS011;55559;48.898;9.184;2023-05-06T06:13:57;7.70;;;2.45;;
49842;SDS011;55559;48.898;9.184;2023-05-06T06:16:26;8.95;;;1.75;;
49842;SDS011;55559;48.898;9.184;2023-05-06T06:18:56;5.05;;;1.67;;
49842;SDS011;55559;48.898;9.184;2023-05-06T06:21:24;7.28;;;1.52;;
49842;SDS011;55559;48.898;9.184;2023-05-06T06:23:52;6.18;;;1.23;;
49842;SDS011;55559;48.898;9.184;2023-05-06T06:26:21;3.25;;;0.98;;
49842;SDS011;55559;48.898;9.184;2023-05-06T06:28:49;6.13;;;1.45;;
49842;SDS011;55559;48.898;9.184;2023-05-06T06:31:16;5.63;;;1.30;;
49842;SDS011;55559;48.898;9.184;2023-05-06T06:33:43;5.32;;;1.50;;
49842;SDS011;55559;48.898;9.184;2023-05-06T06:36:13;2.42;;;1.45;;
49842;SDS011;55559;48.898;9.184;2023-05-06T06:38:41;3.63;;;1.02;;
49842;SDS011;55559;48.898;9.184;2023-05-06T06:41:10;5.20;;;1.17;;
49842;SDS011;55559;48.898;9.184;2023-05-06T06:43:37;4.53;;;1.10;;
49842;SDS011;55559;48.898;9.184;2023-05-06T06:46:15;6.47;;;2.03;;
49842;SDS011;55559;48.898;9.184;2023-05-06T06:48:42;2.78;;;1.55;;
49842;SDS011;55559;48.898;9.184;2023-05-06T06:51:10;3.40;;;1.55;;
49842;SDS011;55559;48.898;9.184;2023-05-06T06:53:40;6.20;;;2.35;;
49842;SDS011;55559;48.898;9.184;2023-05-06T06:56:08;3.80;;;1.75;;
49842;SDS011;55559;48.898;9.184;2023-05-06T06:58:37;3.83;;;1.70;;
49842;SDS011;55559;48.898;9.184;2023-05-06T07:01:04;5.15;;;1.75;;
49842;SDS011;55559;48.898;9.184;2023-05-06T07:03:33;4.25;;;1.33;;
49842;SDS011;55559;48.898;9.184;2023-05-06T07:06:01;3.25;;;1.40;;
49842;SDS011;55559;48.898;9.184;2023-05-06T07:08:28;2.30;;;1.27;;
49842;SDS011;55559;48.898;9.184;2023-05-06T07:10:57;4.60;;;1.23;;
49842;SDS011;55559;48.898;9.184;2023-05-06T07:13:24;4.97;;;1.02;;
49842;SDS011;55559;48.898;9.184;2023-05-06T07:15:52;3.85;;;1.00;;
49842;SDS011;55559;48.898;9.184;2023-05-06T07:18:20;2.90;;;1.27;;
49842;SDS011;55559;48.898;9.184;2023-05-06T07:20:47;6.43;;;1.10;;
49842;SDS011;55559;48.898;9.184;2023-05-06T07:23:15;3.15;;;0.80;;
49842;SDS011;55559;48.898;9.184;2023-05-06T07:25:42;4.50;;;1.10;;
49842;SDS011;55559;48.898;9.184;2023-05-06T07:31:14;3.03;;;0.80;;
49842;SDS011;55559;48.898;9.184;2023-05-06T07:33:45;3.50;;;0.80;;
49842;SDS011;55559;48.898;9.184;2023-05-06T07:36:12;5.40;;;1.02;;
49842;SDS011;55559;48.898;9.184;2023-05-06T07:38:41;5.55;;;1.00;;
49842;SDS011;55559;48.898;9.184;2023-05-06T07:41:09;4.07;;;0.93;;
49842;SDS011;55559;48.898;9.184;2023-05-06T07:43:37;2.05;;;0.85;;
49842;SDS011;55559;48.898;9.184;2023-05-06T07:46:06;3.15;;;0.85;;
49842;SDS011;55559;48.898;9.184;2023-05-06T07:48:45;4.03;;;1.23;;
49842;SDS011;55559;48.898;9.184;2023-05-06T07:51:13;5.30;;;1.00;;
49842;SDS011;55559;48.898;9.184;2023-05-06T07:53:41;5.43;;;1.17;;
49842;SDS011;55559;48.898;9.184;2023-05-06T07:56:08;3.28;;;1.08;;
49842;SDS011;55559;48.898;9.184;2023-05-06T07:58:36;2.88;;;1.00;;
49842;SDS011;55559;48.898;9.184;2023-05-06T08:01:03;2.28;;;0.80;;
49842;SDS011;55559;48.898;9.184;2023-05-06T08:03:32;1.92;;;0.60;;
49842;SDS011;55559;48.898;9.184;2023-05-06T08:06:00;2.35;;;0.50;;
49842;SDS011;55559;48.898;9.184;2023-05-06T08:08:28;0.80;;;0.50;;
49842;SDS011;55559;48.898;9.184;2023-05-06T08:10:56;2.75;;;0.77;;
49842;SDS011;55559;48.898;9.184;2023-05-06T08:13:25;6.45;;;0.73;;
49842;SDS011;55559;48.898;9.184;2023-05-06T08:15:53;1.35;;;0.45;;
49842;SDS011;55559;48.898;9.184;2023-05-06T08:18:23;3.10;;;0.57;;
49842;SDS011;55559;48.898;9.184;2023-05-06T08:20:50;1.10;;;0.50;;
49842;SDS011;55559;48.898;9.184;2023-05-06T08:23:19;1.85;;;0.50;;
49842;SDS011;55559;48.898;9.184;2023-05-06T08:25:46;11.23;;;0.55;;
49842;SDS011;55559;48.898;9.184;2023-05-06T08:28:24;3.45;;;0.50;;
49842;SDS011;55559;48.898;9.184;2023-05-06T08:30:53;2.08;;;0.40;;
49842;SDS011;55559;48.898;9.184;2023-05-06T08:33:24;3.38;;;0.40;;
49842;SDS011;55559;48.898;9.184;2023-05-06T08:35:51;1.55;;;0.50;;
49842;SDS011;55559;48.898;9.184;2023-05-06T08:38:21;1.58;;;0.40;;
49842;SDS011;55559;48.898;9.184;2023-05-06T08:40:50;0.93;;;0.47;;
49842;SDS011;55559;48.898;9.184;2023-05-06T08:43:24;1.70;;;0.40;;
49842;SDS011;55559;48.898;9.184;2023-05-06T08:45:53;2.97;;;0.40;;
49842;SDS011;55559;48.898;9.184;2023-05-06T08:48:20;1.80;;;0.40;;
49842;SDS011;55559;48.898;9.184;2023-05-06T08:50:49;4.28;;;0.25;;
49842;SDS011;55559;48.898;9.184;2023-05-06T08:53:19;1.58;;;0.30;;
49842;SDS011;55559;48.898;9.184;2023-05-06T08:55:47;2.55;;;0.30;;
49842;SDS011;55559;48.898;9.184;2023-05-06T08:58:19;2.75;;;0.30;;
49842;SDS011;55559;48.898;9.184;2023-05-06T09:00:50;10.50;;;0.57;;
49842;SDS011;55559;48.898;9.184;2023-05-06T09:03:17;1.48;;;0.70;;
49842;SDS011;55559;48.898;9.184;2023-05-06T09:05:45;1.52;;;0.50;;
49842;SDS011;55559;48.898;9.184;2023-05-06T09:08:14;3.13;;;0.38;;
49842;SDS011;55559;48.898;9.184;2023-05-06T09:10:43;2.65;;;0.30;;
49842;SDS011;55559;48.898;9.184;2023-05-06T09:13:11;0.65;;;0.20;;
49842;SDS011;55559;48.898;9.184;2023-05-06T09:15:39;2.17;;;0.20;;
49842;SDS011;55559;48.898;9.184;2023-05-06T09:18:07;3.55;;;0.40;;
49842;SDS011;55559;48.898;9.184;2023-05-06T09:20:39;0.88;;;0.20;;
49842;SDS011;55559;48.898;9.184;2023-05-06T09:23:07;4.65;;;0.30;;
49842;SDS011;55559;48.898;9.184;2023-05-06T09:25:36;0.85;;;0.20;;
49842;SDS011;55559;48.898;9.184;2023-05-06T09:28:04;0.30;;;0.20;;
49842;SDS011;55559;48.898;9.184;2023-05-06T09:30:32;1.88;;;0.20;;
49842;SDS011;55559;48.898;9.184;2023-05-06T09:33:01;0.65;;;0.20;;
49842;SDS011;55559;48.898;9.184;2023-05-06T09:35:34;0.85;;;0.20;;
49842;SDS011;55559;48.898;9.184;2023-05-06T09:38:04;2.38;;;0.38;;
49842;SDS011;55559;48.898;9.184;2023-05-06T09:40:33;20.48;;;1.60;;
49842;SDS011;55559;48.898;9.184;2023-05-06T09:43:03;8.10;;;0.47;;
49842;SDS011;55559;48.898;9.184;2023-05-06T09:45:32;2.40;;;0.45;;
49842;SDS011;55559;48.898;9.184;2023-05-06T09:47:59;2.50;;;0.30;;
49842;SDS011;55559;48.898;9.184;2023-05-06T09:50:27;1.30;;;0.28;;
49842;SDS011;55559;48.898;9.184;2023-05-06T09:52:55;1.45;;;0.30;;
49842;SDS011;55559;48.898;9.184;2023-05-06T09:55:25;4.82;;;0.20;;
49842;SDS011;55559;48.898;9.184;2023-05-06T09:57:54;6.50;;;0.35;;
49842;SDS011;55559;48.898;9.184;2023-05-06T10:00:24;0.77;;;0.30;;
49842;SDS011;55559;48.898;9.184;2023-05-06T10:02:53;2.38;;;0.30;;
49842;SDS011;55559;48.898;9.184;2023-05-06T10:05:21;1.15;;;0.20;;
49842;SDS011;55559;48.898;9.184;2023-05-06T10:07:50;4.63;;;0.40;;
49842;SDS011;55559;48.898;9.184;2023-05-06T10:10:19;1.52;;;0.10;;
49842;SDS011;55559;48.898;9.184;2023-05-06T10:12:47;1.80;;;0.30;;
49842;SDS011;55559;48.898;9.184;2023-05-06T10:15:15;0.80;;;0.20;;
49842;SDS011;55559;48.898;9.184;2023-05-06T10:17:50;0.85;;;0.25;;
49842;SDS011;55559;48.898;9.184;2023-05-06T10:20:18;4.85;;;0.30;;
49842;SDS011;55559;48.898;9.184;2023-05-06T10:22:51;0.63;;;0.20;;
49842;SDS011;55559;48.898;9.184;2023-05-06T10:25:28;1.25;;;0.25;;
49842;SDS011;55559;48.898;9.184;2023-05-06T10:28:02;1.27;;;0.30;;
49842;SDS011;55559;48.898;9.184;2023-05-06T10:30:31;2.65;;;0.30;;
49842;SDS011;55559;48.898;9.184;2023-05-06T10:33:02;1.25;;;0.30;;
49842;SDS011;55559;48.898;9.184;2023-05-06T10:35:34;2.33;;;0.28;;
49842;SDS011;55559;48.898;9.184;2023-05-06T10:38:11;0.40;;;0.20;;
49842;SDS011;55559;48.898;9.184;2023-05-06T10:40:47;0.40;;;0.20;;
49842;SDS011;55559;48.898;9.184;2023-05-06T10:43:21;1.90;;;0.30;;
49842;SDS011;55559;48.898;9.184;2023-05-06T10:45:59;0.63;;;0.20;;
49842;SDS011;55559;48.898;9.184;2023-05-06T10:48:29;0.60;;;0.20;;
49842;SDS011;55559;48.898;9.184;2023-05-06T10:53:59;1.05;;;0.20;;
49842;SDS011;55559;48.898;9.184;2023-05-06T10:56:30;1.33;;;0.10;;
49842;SDS011;55559;48.898;9.184;2023-05-06T10:59:02;3.35;;;1.25;;
49842;SDS011;55559;48.898;9.184;2023-05-06T11:01:36;6.03;;;0.20;;
49842;SDS011;55559;48.898;9.184;2023-05-06T11:04:06;6.68;;;0.30;;
49842;SDS011;55559;48.898;9.184;2023-05-06T11:06:37;5.72;;;0.30;;
49842;SDS011;55559;48.898;9.184;2023-05-06T11:09:14;1.08;;;0.20;;
49842;SDS011;55559;48.898;9.184;2023-05-06T11:11:47;3.47;;;0.20;;
49842;SDS011;55559;48.898;9.184;2023-05-06T11:14:28;1.08;;;0.10;;
49842;SDS011;55559;48.898;9.184;2023-05-06T11:16:58;0.52;;;0.17;;
49842;SDS011;55559;48.898;9.184;2023-05-06T11:19:28;1.77;;;0.10;;
49842;SDS011;55559;48.898;9.184;2023-05-06T11:21:57;0.60;;;0.20;;
49842;SDS011;55559;48.898;9.184;2023-05-06T11:24:26;0.95;;;0.28;;
49842;SDS011;55559;48.898;9.184;2023-05-06T11:26:56;0.70;;;0.20;;
49842;SDS011;55559;48.898;9.184;2023-05-06T11:29:24;2.42;;;0.40;;
49842;SDS011;55559;48.898;9.184;2023-05-06T11:31:54;1.98;;;0.40;;
49842;SDS011;55559;48.898;9.184;2023-05-06T11:34:24;2.05;;;0.30;;
49842;SDS011;55559;48.898;9.184;2023-05-06T11:36:56;1.55;;;0.47;;
49842;SDS011;55559;48.898;9.184;2023-05-06T11:39:27;2.70;;;0.30;;
49842;SDS011;55559;48.898;9.184;2023-05-06T11:41:59;2.15;;;0.30;;
49842;SDS011;55559;48.898;9.184;2023-05-06T11:44:28;2.03;;;0.30;;
49842;SDS011;55559;48.898;9.184;2023-05-06T11:46:57;0.57;;;0.30;;
49842;SDS011;55559;48.898;9.184;2023-05-06T11:49:25;3.55;;;0.30;;
49842;SDS011;55559;48.898;9.184;2023-05-06T11:51:53;1.30;;;0.30;;
49842;SDS011;55559;48.898;9.184;2023-05-06T11:54:25;0.93;;;0.30;;
49842;SDS011;55559;48.898;9.184;2023-05-06T11:56:54;2.50;;;0.20;;
49842;SDS011;55559;48.898;9.184;2023-05-06T11:59:26;0.80;;;0.20;;
49842;SDS011;55559;48.898;9.184;2023-05-06T12:01:56;0.98;;;0.30;;
49842;SDS011;55559;48.898;9.184;2023-05-06T12:04:25;1.13;;;0.30;;
49842;SDS011;55559;48.898;9.184;2023-05-06T12:06:55;1.58;;;0.38;;
49842;SDS011;55559;48.898;9.184;2023-05-06T12:09:23;0.88;;;0.30;;
49842;SDS011;55559;48.898;9.184;2023-05-06T12:11:53;1.10;;;0.40;;
49842;SDS011;55559;48.898;9.184;2023-05-06T12:14:20;0.60;;;0.30;;
49842;SDS011;55559;48.898;9.184;2023-05-06T12:16:48;1.15;;;0.30;;
49842;SDS011;55559;48.898;9.184;2023-05-06T12:19:15;0.82;;;0.30;;
49842;SDS011;55559;48.898;9.184;2023-05-06T12:21:43;3.75;;;0.30;;
49842;SDS011;55559;48.898;9.184;2023-05-06T12:24:13;1.58;;;0.10;;
49842;SDS011;55559;48.898;9.184;2023-05-06T12:26:44;0.75;;;0.22;;
49842;SDS011;55559;48.898;9.184;2023-05-06T12:31:43;3.10;;;0.20;;
49842;SDS011;55559;48.898;9.184;2023-05-06T12:34:11;1.33;;;0.20;;
49842;SDS011;55559;48.898;9.184;2023-05-06T12:36:41;1.00;;;0.30;;
49842;SDS011;55559;48.898;9.184;2023-05-06T12:39:10;0.70;;;0.20;;
49842;SDS011;55559;48.898;9.184;2023-05-06T12:41:40;3.17;;;0.22;;
49842;SDS011;55559;48.898;9.184;2023-05-06T12:47:29;2.58;;;0.20;;
49842;SDS011;55559;48.898;9.184;2023-05-06T12:49:57;0.70;;;0.30;;
49842;SDS011;55559;48.898;9.184;2023-05-06T12:52:25;2.70;;;0.30;;
49842;SDS011;55559;48.898;9.184;2023-05-06T12:54:54;1.85;;;0.38;;
49842;SDS011;55559;48.898;9.184;2023-05-06T12:57:23;0.98;;;0.20;;
49842;SDS011;55559;48.898;9.184;2023-05-06T12:59:51;1.23;;;0.28;;
49842;SDS011;55559;48.898;9.184;2023-05-06T13:02:18;2.15;;;0.30;;
49842;SDS011;55559;48.898;9.184;2023-05-06T13:04:45;2.75;;;0.20;;
49842;SDS011;55559;48.898;9.184;2023-05-06T13:07:13;1.23;;;0.20;;
49842;SDS011;55559;48.898;9.184;2023-05-06T13:09:43;2.28;;;0.30;;
49842;SDS011;55559;48.898;9.184;2023-05-06T13:12:11;0.80;;;0.38;;
49842;SDS011;55559;48.898;9.184;2023-05-06T13:14:39;1.90;;;0.40;;
49842;SDS011;55559;48.898;9.184;2023-05-06T13:17:07;0.82;;;0.30;;
49842;SDS011;55559;48.898;9.184;2023-05-06T13:19:35;1.23;;;0.40;;
49842;SDS011;55559;48.898;9.184;2023-05-06T13:22:02;2.92;;;0.35;;
49842;SDS011;55559;48.898;9.184;2023-05-06T13:24:31;0.75;;;0.30;;
49842;SDS011;55559;48.898;9.184;2023-05-06T13:26:59;2.35;;;0.30;;
49842;SDS011;55559;48.898;9.184;2023-05-06T13:29:29;4.88;;;0.20;;
49842;SDS011;55559;48.898;9.184;2023-05-06T13:31:58;0.88;;;0.20;;
49842;SDS011;55559;48.898;9.184;2023-05-06T13:34:27;0.45;;;0.10;;
49842;SDS011;55559;48.898;9.184;2023-05-06T13:36:55;1.67;;;0.30;;
49842;SDS011;55559;48.898;9.184;2023-05-06T13:39:24;1.98;;;0.50;;
49842;SDS011;55559;48.898;9.184;2023-05-06T13:41:51;0.57;;;0.20;;
49842;SDS011;55559;48.898;9.184;2023-05-06T13:44:18;1.23;;;0.30;;
49842;SDS011;55559;48.898;9.184;2023-05-06T13:46:47;1.23;;;0.20;;
49842;SDS011;55559;48.898;9.184;2023-05-06T13:49:17;0.50;;;0.10;;
49842;SDS011;55559;48.898;9.184;2023-05-06T13:51:45;0.98;;;0.20;;
49842;SDS011;55559;48.898;9.184;2023-05-06T13:54:13;0.93;;;0.20;;
49842;SDS011;55559;48.898;9.184;2023-05-06T13:56:40;1.90;;;0.10;;
49842;SDS011;55559;48.898;9.184;2023-05-06T13:59:07;2.28;;;0.17;;
49842;SDS011;55559;48.898;9.184;2023-05-06T14:01:37;1.05;;;0.10;;
49842;SDS011;55559;48.898;9.184;2023-05-06T14:04:05;0.60;;;0.20;;
49842;SDS011;55559;48.898;9.184;2023-05-06T14:06:35;0.60;;;0.20;;
49842;SDS011;55559;48.898;9.184;2023-05-06T14:09:03;1.38;;;0.20;;
49842;SDS011;55559;48.898;9.184;2023-05-06T14:11:31;0.90;;;0.10;;
49842;SDS011;55559;48.898;9.184;2023-05-06T14:13:58;2.50;;;0.10;;
49842;SDS011;55559;48.898;9.184;2023-05-06T14:16:27;1.35;;;0.20;;
49842;SDS011;55559;48.898;9.184;2023-05-06T14:18:55;0.95;;;0.20;;
49842;SDS011;55559;48.898;9.184;2023-05-06T14:21:22;2.55;;;0.10;;
49842;SDS011;55559;48.898;9.184;2023-05-06T14:23:51;1.52;;;0.20;;
49842;SDS011;55559;48.898;9.184;2023-05-06T14:26:19;0.82;;;0.10;;
49842;SDS011;55559;48.898;9.184;2023-05-06T14:28:47;0.75;;;0.13;;
49842;SDS011;55559;48.898;9.184;2023-05-06T14:31:14;0.73;;;0.13;;
49842;SDS011;55559;48.898;9.184;2023-05-06T14:33:41;3.05;;;0.17;;
49842;SDS011;55559;48.898;9.184;2023-05-06T14:36:09;1.20;;;0.10;;
49842;SDS011;55559;48.898;9.184;2023-05-06T14:38:36;3.97;;;0.20;;
49842;SDS011;55559;48.898;9.184;2023-05-06T14:41:07;3.70;;;0.10;;
49842;SDS011;55559;48.898;9.184;2023-05-06T14:43:42;0.20;;;0.10;;
49842;SDS011;55559;48.898;9.184;2023-05-06T14:46:11;0.93;;;0.10;;
49842;SDS011;55559;48.898;9.184;2023-05-06T14:48:40;1.13;;;0.10;;
49842;SDS011;55559;48.898;9.184;2023-05-06T14:51:08;3.40;;;0.10;;
49842;SDS011;55559;48.898;9.184;2023-05-06T14:53:35;2.38;;;0.10;;
49842;SDS011;55559;48.898;9.184;2023-05-06T14:56:05;0.75;;;0.10;;
49842;SDS011;55559;48.898;9.184;2023-05-06T14:58:38;0.80;;;0.08;;
49842;SDS011;55559;48.898;9.184;2023-05-06T15:01:05;0.52;;;0.10;;
49842;SDS011;55559;48.898;9.184;2023-05-06T15:03:34;1.55;;;0.20;;
49842;SDS011;55559;48.898;9.184;2023-05-06T15:06:02;0.80;;;0.20;;
49842;SDS011;55559;48.898;9.184;2023-05-06T15:08:30;4.18;;;0.20;;
49842;SDS011;55559;48.898;9.184;2023-05-06T15:10:57;12.38;;;0.20;;